Time;durP1;ratioP1;P1;durP2;ratioP2;P2;SDS_P1;SDS_P2;PMS_P1;PMS_P2;Temp;Humidity;BMP_temperature;BMP_pressure;BME280_temperature;BME280_humidity;BME280_pressure;Samples;Min_cycle;Max_cycle;Signal;HPM_P1;HPM_P2
2023/09/20 00:00:40;;;;;;;1.63;1.00;;;;;;;16.17;70.14;92890.16;2040638;70;20336;-82
2023/09/20 00:03:06;;;;;;;3.47;1.13;;;;;;;16.29;69.07;92887.09;2049226;70;20173;-82
2023/09/20 00:05:32;;;;;;;2.33;1.20;;;;;;;16.08;70.90;92890.44;2047235;70;20154;-84
2023/09/20 00:07:58;;;;;;;4.97;1.38;;;;;;;16.29;70.02;92884.25;2047474;70;20212;-83
2023/09/20 00:10:26;;;;;;;4.65;1.20;;;;;;;16.16;69.88;92887.94;2050244;70;20138;-84
2023/09/20 00:12:52;;;;;;;2.95;1.40;;;;;;;16.12;70.54;92890.59;2053394;70;20162;-84
2023/09/20 00:15:18;;;;;;;2.47;1.20;;;;;;;16.36;69.54;92888.84;2048014;70;20138;-86
2023/09/20 00:17:48;;;;;;;3.65;1.20;;;;;;;16.47;69.12;92890.72;2053772;70;20208;-83
2023/09/20 00:20:14;;;;;;;3.50;1.30;;;;;;;16.50;68.48;92892.25;2047869;70;20128;-83
2023/09/20 00:22:45;;;;;;;2.25;1.20;;;;;;;16.29;69.92;92892.03;2053280;70;20150;-81
2023/09/20 00:25:15;;;;;;;2.03;1.20;;;;;;;15.97;70.91;92890.00;2053190;70;20133;-81
2023/09/20 00:27:47;;;;;;;1.50;1.08;;;;;;;16.33;70.11;92895.06;2052363;69;20147;-84
2023/09/20 00:30:17;;;;;;;1.90;1.10;;;;;;;16.40;69.84;92879.72;2061121;69;20617;-84
2023/09/20 00:32:46;;;;;;;4.05;1.50;;;;;;;16.14;70.03;92887.88;2061074;69;20236;-82
2023/09/20 00:35:16;;;;;;;5.07;1.10;;;;;;;15.97;69.58;92863.72;2061324;69;20129;-83
2023/09/20 00:37:47;;;;;;;3.28;1.25;;;;;;;16.02;70.33;92871.75;2061478;69;20141;-81
2023/09/20 00:40:16;;;;;;;2.05;1.17;;;;;;;16.43;68.53;92881.28;2054409;69;20165;-82
2023/09/20 00:42:45;;;;;;;2.28;1.10;;;;;;;16.35;68.48;92890.19;2057000;69;20130;-81
2023/09/20 00:45:13;;;;;;;1.38;1.05;;;;;;;16.49;68.39;92884.38;2054404;69;20125;-81
2023/09/20 00:47:43;;;;;;;3.13;1.20;;;;;;;16.47;69.05;92887.88;2057692;69;20171;-82
2023/09/20 00:50:13;;;;;;;4.88;1.23;;;;;;;16.24;69.19;92883.34;2058407;69;20144;-82
2023/09/20 00:52:44;;;;;;;1.35;1.10;;;;;;;16.32;69.20;92882.25;2062643;69;20145;-81
2023/09/20 00:55:20;;;;;;;3.58;1.27;;;;;;;16.53;68.75;92884.53;2063469;69;20149;-81
2023/09/20 00:57:51;;;;;;;2.20;1.20;;;;;;;16.44;68.18;92877.06;2063187;69;20221;-81
2023/09/20 01:00:27;;;;;;;6.38;1.05;;;;;;;16.47;68.66;92875.78;2063626;69;20152;-81
2023/09/20 01:02:55;;;;;;;4.35;1.10;;;;;;;16.47;69.13;92872.94;2064363;69;20213;-84
2023/09/20 01:05:22;;;;;;;1.48;1.08;;;;;;;16.35;69.58;92872.41;2065966;69;20158;-83
2023/09/20 01:07:50;;;;;;;4.88;1.38;;;;;;;16.46;68.94;92869.38;2060997;69;20174;-84
2023/09/20 01:10:18;;;;;;;1.52;1.10;;;;;;;16.08;69.99;92871.31;2059432;69;20219;-83
2023/09/20 01:12:44;;;;;;;2.03;1.15;;;;;;;16.44;68.69;92866.41;2059407;69;20154;-81
2023/09/20 01:15:10;;;;;;;1.35;1.02;;;;;;;16.53;69.08;92865.38;2058686;69;20154;-83
2023/09/20 01:17:44;;;;;;;1.40;0.90;;;;;;;16.57;68.74;92864.81;2055982;69;20156;-84
2023/09/20 01:20:12;;;;;;;1.50;1.05;;;;;;;16.64;67.84;92862.97;2058671;69;20632;-82
2023/09/20 01:22:40;;;;;;;1.95;1.10;;;;;;;16.56;68.52;92856.94;2057976;69;20130;-83
2023/09/20 01:25:09;;;;;;;1.92;1.20;;;;;;;16.54;68.43;92851.94;2057825;69;20152;-83
2023/09/20 01:27:38;;;;;;;2.35;1.10;;;;;;;16.47;68.81;92859.44;2057626;69;20158;-83
2023/09/20 01:30:08;;;;;;;2.03;1.13;;;;;;;16.32;69.09;92857.41;2058523;69;20177;-85
2023/09/20 01:32:36;;;;;;;2.10;1.00;;;;;;;16.41;69.09;92853.53;2058172;69;20156;-83
2023/09/20 01:35:03;;;;;;;2.42;1.05;;;;;;;16.49;68.82;92858.78;2057372;69;20148;-84
2023/09/20 01:37:28;;;;;;;2.20;1.20;;;;;;;16.45;68.96;92859.38;2057746;69;20220;-84
2023/09/20 01:39:57;;;;;;;2.30;1.30;;;;;;;16.42;69.21;92852.13;2058767;69;20161;-84
2023/09/20 01:42:23;;;;;;;2.20;1.02;;;;;;;16.59;68.98;92855.66;2058234;69;20138;-84
2023/09/20 01:44:51;;;;;;;2.70;1.10;;;;;;;16.43;69.60;92850.75;2061798;69;20239;-83
2023/09/20 01:47:16;;;;;;;2.00;1.15;;;;;;;16.56;68.86;92848.44;2057768;69;20246;-83
2023/09/20 01:49:42;;;;;;;2.35;1.05;;;;;;;16.35;68.42;92839.03;2058033;69;20143;-83
2023/09/20 01:52:09;;;;;;;1.90;1.27;;;;;;;16.53;68.48;92861.81;2058059;69;20158;-83
2023/09/20 01:54:37;;;;;;;3.63;1.17;;;;;;;16.44;68.69;92851.47;2057987;69;20148;-83
2023/09/20 01:57:05;;;;;;;2.95;1.33;;;;;;;16.51;68.99;92861.75;2054551;69;20204;-82
2023/09/20 01:59:32;;;;;;;4.30;1.10;;;;;;;16.49;68.77;92845.34;2057931;69;20138;-83
2023/09/20 02:01:58;;;;;;;2.55;1.20;;;;;;;16.45;69.94;92853.69;2061421;69;20148;-83
2023/09/20 02:04:25;;;;;;;3.10;1.23;;;;;;;16.47;69.27;92845.25;2058053;69;20149;-83
2023/09/20 02:06:51;;;;;;;2.72;1.30;;;;;;;16.46;69.65;92848.75;2055553;69;20138;-83
2023/09/20 02:09:18;;;;;;;2.28;1.00;;;;;;;16.40;70.95;92845.63;2061926;69;20144;-83
2023/09/20 02:11:44;;;;;;;3.83;1.27;;;;;;;16.36;70.33;92839.81;2061882;69;20616;-83
2023/09/20 02:14:11;;;;;;;2.42;1.20;;;;;;;16.34;70.70;92842.53;2058254;69;20141;-83
2023/09/20 02:16:38;;;;;;;3.38;1.05;;;;;;;16.44;69.98;92837.28;2055418;69;20161;-83
2023/09/20 02:19:06;;;;;;;2.00;1.10;;;;;;;16.29;71.17;92835.22;2055449;69;20242;-83
2023/09/20 02:21:32;;;;;;;2.65;1.20;;;;;;;16.37;70.28;92841.25;2061964;69;20145;-83
2023/09/20 02:23:59;;;;;;;2.63;1.38;;;;;;;16.10;71.58;92831.63;2061800;69;20141;-83
2023/09/20 02:26:27;;;;;;;6.07;1.30;;;;;;;16.06;72.75;92842.81;2062113;69;20155;-83
2023/09/20 02:28:52;;;;;;;3.60;1.30;;;;;;;16.20;72.12;92834.16;2058438;69;20653;-82
2023/09/20 02:31:18;;;;;;;2.28;1.20;;;;;;;16.18;72.21;92845.44;2061891;69;20149;-82
2023/09/20 02:33:44;;;;;;;2.33;1.30;;;;;;;16.13;72.70;92847.38;2062037;69;20145;-83
2023/09/20 02:36:11;;;;;;;4.53;1.10;;;;;;;16.24;72.30;92840.75;2058322;69;20141;-82
2023/09/20 02:38:38;;;;;;;4.35;1.35;;;;;;;16.07;72.51;92837.84;2061621;69;20185;-83
2023/09/20 02:41:04;;;;;;;2.55;1.38;;;;;;;16.14;72.80;92828.97;2057550;69;20173;-83
2023/09/20 02:43:30;;;;;;;3.75;1.48;;;;;;;16.14;72.91;92831.06;2058279;69;20196;-83
2023/09/20 02:45:59;;;;;;;2.33;1.33;;;;;;;16.11;72.53;92826.66;2057708;69;20576;-83
2023/09/20 02:48:29;;;;;;;3.33;1.38;;;;;;;16.15;72.26;92821.16;2057653;69;20142;-82
2023/09/20 02:50:58;;;;;;;3.38;1.30;;;;;;;16.20;72.47;92828.47;2058136;69;20640;-83
2023/09/20 02:53:24;;;;;;;4.30;1.23;;;;;;;16.18;72.55;92825.56;2057723;69;20602;-83
2023/09/20 02:55:50;;;;;;;5.03;1.60;;;;;;;16.16;72.46;92826.19;2058072;69;20201;-83
2023/09/20 02:58:18;;;;;;;3.47;1.30;;;;;;;16.20;71.97;92823.53;2057538;69;20174;-83
2023/09/20 03:00:50;;;;;;;2.85;1.30;;;;;;;16.19;72.39;92818.50;2057980;69;20526;-83
2023/09/20 03:03:18;;;;;;;4.03;1.45;;;;;;;16.07;73.60;92820.81;2057565;69;20145;-83
2023/09/20 03:05:44;;;;;;;4.10;1.20;;;;;;;16.10;73.32;92805.34;2057471;69;20141;-83
2023/09/20 03:08:13;;;;;;;4.10;1.33;;;;;;;16.06;74.10;92808.00;2058186;69;20537;-83
2023/09/20 03:10:43;;;;;;;2.45;1.25;;;;;;;16.08;72.80;92819.44;2054647;69;20169;-83
2023/09/20 03:13:12;;;;;;;4.00;1.42;;;;;;;16.02;73.22;92814.25;2057176;69;20138;-83
2023/09/20 03:15:43;;;;;;;3.40;1.40;;;;;;;15.90;73.95;92802.38;2054918;69;20150;-83
2023/09/20 03:18:13;;;;;;;3.33;1.40;;;;;;;15.84;73.87;92805.66;2057529;69;20141;-83
2023/09/20 03:20:48;;;;;;;2.08;1.30;;;;;;;15.98;73.97;92808.38;2057668;69;20586;-83
2023/09/20 03:23:13;;;;;;;4.07;1.55;;;;;;;15.92;74.27;92808.88;2054823;69;20668;-83
2023/09/20 03:25:42;;;;;;;2.13;1.45;;;;;;;15.96;74.54;92814.72;2057794;69;20173;-83
2023/09/20 03:28:14;;;;;;;3.22;1.40;;;;;;;15.86;75.01;92816.41;2058075;69;20153;-83
2023/09/20 03:30:40;;;;;;;5.40;1.77;;;;;;;15.97;74.02;92824.69;2058177;69;20150;-83
2023/09/20 03:33:12;;;;;;;3.38;1.50;;;;;;;16.01;74.07;92815.63;2057469;69;20254;-83
2023/09/20 03:35:39;;;;;;;4.70;1.60;;;;;;;15.94;74.46;92822.41;2058065;69;20164;-84
2023/09/20 03:38:08;;;;;;;5.60;1.73;;;;;;;15.98;74.08;92817.63;2057531;69;20146;-83
2023/09/20 03:40:34;;;;;;;3.55;1.60;;;;;;;15.94;74.95;92820.31;2055302;69;20596;-83
2023/09/20 03:43:03;;;;;;;4.28;1.75;;;;;;;15.92;73.97;92820.22;2049064;70;20141;-83
2023/09/20 03:45:29;;;;;;;4.32;1.70;;;;;;;15.99;73.92;92827.63;2055080;69;20161;-83
2023/09/20 03:47:57;;;;;;;4.43;1.88;;;;;;;15.96;74.43;92814.72;2054512;70;20139;-83
2023/09/20 03:50:24;;;;;;;2.95;1.50;;;;;;;16.00;73.48;92822.69;2054980;69;20150;-83
2023/09/20 03:52:52;;;;;;;2.53;1.50;;;;;;;15.89;74.93;92824.34;2055093;69;20606;-83
2023/09/20 03:55:19;;;;;;;6.22;1.65;;;;;;;15.81;75.53;92818.34;2054789;69;20232;-83
2023/09/20 03:57:45;;;;;;;2.85;1.35;;;;;;;15.82;74.88;92816.22;2054533;70;20662;-83
2023/09/20 04:00:12;;;;;;;4.32;1.40;;;;;;;15.80;74.95;92814.00;2054341;70;20134;-83
2023/09/20 04:02:45;;;;;;;4.43;1.55;;;;;;;15.71;75.13;92804.44;2054660;70;20150;-82
2023/09/20 04:05:15;;;;;;;5.53;1.70;;;;;;;15.64;75.53;92805.53;2054450;70;20197;-83
2023/09/20 04:07:44;;;;;;;4.97;1.55;;;;;;;15.62;75.15;92811.06;2055060;69;20220;-83
2023/09/20 04:10:11;;;;;;;3.83;1.50;;;;;;;15.55;75.61;92808.63;2054441;70;20154;-82
2023/09/20 04:12:38;;;;;;;2.33;1.33;;;;;;;15.36;76.73;92813.50;2054513;69;20165;-81
2023/09/20 04:15:04;;;;;;;3.58;1.58;;;;;;;15.30;76.64;92796.19;2054736;70;20780;-82
2023/09/20 04:17:35;;;;;;;5.97;2.13;;;;;;;15.24;76.57;92795.91;2054587;70;20138;-81
2023/09/20 04:20:05;;;;;;;1.70;1.20;;;;;;;15.28;75.58;92787.59;2054493;70;20247;-82
2023/09/20 04:22:34;;;;;;;6.53;1.23;;;;;;;15.34;75.31;92798.47;2054511;70;20563;-82
2023/09/20 04:25:00;;;;;;;4.85;1.40;;;;;;;15.18;76.48;92799.22;2054242;70;20158;-82
2023/09/20 04:27:32;;;;;;;3.72;1.25;;;;;;;15.18;75.79;92801.31;2054311;70;20165;-82
2023/09/20 04:29:58;;;;;;;3.00;1.30;;;;;;;15.13;76.27;92803.25;2054335;70;20162;-82
2023/09/20 04:32:32;;;;;;;3.85;1.58;;;;;;;15.09;76.25;92805.16;2054762;70;20149;-82
2023/09/20 04:35:02;;;;;;;7.25;1.38;;;;;;;14.97;76.33;92799.66;2054255;70;20134;-82
2023/09/20 04:37:30;;;;;;;3.10;1.40;;;;;;;15.02;75.81;92806.25;2054996;69;20157;-82
2023/09/20 04:39:55;;;;;;;2.53;1.50;;;;;;;14.93;76.30;92807.97;2056448;69;20161;-83
2023/09/20 04:42:21;;;;;;;3.78;1.40;;;;;;;14.88;76.66;92801.38;2058073;69;20171;-82
2023/09/20 04:44:49;;;;;;;4.30;1.40;;;;;;;14.97;75.70;92808.16;2057796;69;20169;-82
2023/09/20 04:47:17;;;;;;;2.55;1.33;;;;;;;14.88;75.88;92801.38;2057924;69;20137;-83
2023/09/20 04:49:44;;;;;;;5.35;1.50;;;;;;;14.85;75.88;92805.50;2057910;69;20146;-83
2023/09/20 04:52:11;;;;;;;3.30;1.42;;;;;;;14.78;76.14;92808.69;2057817;69;20145;-82
2023/09/20 04:54:38;;;;;;;3.88;1.40;;;;;;;14.66;76.85;92803.16;2057709;69;20219;-82
2023/09/20 04:57:06;;;;;;;1.75;1.17;;;;;;;14.67;76.73;92805.38;2055027;69;20149;-82
2023/09/20 04:59:32;;;;;;;3.53;1.52;;;;;;;14.60;77.27;92797.22;2057779;69;20181;-82
2023/09/20 05:01:59;;;;;;;1.40;1.30;;;;;;;14.56;77.21;92805.53;2061407;69;20153;-83
2023/09/20 05:04:26;;;;;;;3.47;1.58;;;;;;;14.54;77.25;92819.59;2057822;69;20563;-82
2023/09/20 05:06:53;;;;;;;5.07;1.38;;;;;;;14.53;77.50;92815.31;2057782;69;20616;-82
2023/09/20 05:09:20;;;;;;;4.30;1.40;;;;;;;14.49;76.98;92813.00;2057871;69;20130;-82
2023/09/20 05:11:46;;;;;;;5.20;1.20;;;;;;;14.45;77.34;92815.63;2057836;69;20145;-82
2023/09/20 05:14:12;;;;;;;3.72;1.30;;;;;;;14.52;76.98;92830.81;2057736;69;20149;-82
2023/09/20 05:16:38;;;;;;;6.75;3.20;;;;;;;14.42;77.53;92828.94;2057872;69;20149;-83
2023/09/20 05:19:04;;;;;;;10.10;5.13;;;;;;;14.39;76.43;92804.72;2055068;69;20145;-82
2023/09/20 05:21:30;;;;;;;8.20;4.65;;;;;;;14.48;75.75;92823.59;2057997;69;20134;-83
2023/09/20 05:23:55;;;;;;;10.95;4.40;;;;;;;14.40;76.20;92814.69;2061456;69;20220;-83
2023/09/20 05:26:21;;;;;;;3.97;2.97;;;;;;;14.42;76.52;92823.25;2061412;69;20158;-85
2023/09/20 05:28:47;;;;;;;6.80;2.20;;;;;;;14.36;76.31;92817.31;2057825;69;20152;-84
2023/09/20 05:31:16;;;;;;;3.53;1.70;;;;;;;14.32;77.57;92814.28;2061233;69;20149;-83
2023/09/20 05:33:44;;;;;;;3.95;1.88;;;;;;;14.36;77.07;92814.47;2061205;69;20168;-81
2023/09/20 05:36:09;;;;;;;2.05;1.70;;;;;;;14.37;76.97;92818.78;2061243;69;20591;-81
2023/09/20 05:38:36;;;;;;;3.80;1.80;;;;;;;14.33;77.06;92820.69;2061198;69;20229;-80
2023/09/20 05:41:03;;;;;;;7.35;4.07;;;;;;;14.32;77.03;92817.13;2061437;69;20157;-80
2023/09/20 05:43:30;;;;;;;6.45;2.90;;;;;;;14.29;77.26;92823.31;2057980;69;20209;-80
2023/09/20 05:45:59;;;;;;;6.78;2.50;;;;;;;14.29;76.80;92820.47;2061577;69;20172;-80
2023/09/20 05:48:26;;;;;;;5.05;2.38;;;;;;;14.31;77.09;92821.31;2061831;69;20141;-80
2023/09/20 05:50:54;;;;;;;2.85;1.88;;;;;;;14.33;76.69;92824.25;2058128;69;20137;-80
2023/09/20 05:53:21;;;;;;;7.75;2.40;;;;;;;14.18;78.09;92816.44;2061621;69;20601;-80
2023/09/20 05:55:46;;;;;;;6.45;2.65;;;;;;;14.27;76.98;92820.38;2061639;69;20133;-79
2023/09/20 05:58:12;;;;;;;4.75;2.05;;;;;;;14.30;77.31;92825.53;2061662;69;20608;-79
2023/09/20 06:00:38;;;;;;;4.05;2.00;;;;;;;14.28;77.21;92824.69;2061666;69;20514;-79
2023/09/20 06:03:04;;;;;;;2.47;1.80;;;;;;;14.20;77.46;92822.19;2061639;69;20141;-79
2023/09/20 06:05:37;;;;;;;2.65;1.83;;;;;;;14.11;77.87;92826.72;2061518;69;20141;-80
2023/09/20 06:08:05;;;;;;;3.17;1.90;;;;;;;14.35;76.52;92826.47;2061800;69;20141;-79
2023/09/20 06:10:32;;;;;;;18.42;8.30;;;;;;;14.31;76.42;92809.25;2061764;69;20155;-80
2023/09/20 06:13:06;;;;;;;11.05;6.82;;;;;;;14.30;76.83;92814.19;2058290;69;20168;-79
2023/09/20 06:15:33;;;;;;;8.73;4.80;;;;;;;14.22;77.25;92819.47;2058506;69;20149;-79
2023/09/20 06:18:00;;;;;;;4.82;1.90;;;;;;;14.31;76.47;92818.50;2061786;69;20195;-83
2023/09/20 06:20:27;;;;;;;12.07;4.40;;;;;;;14.34;76.26;92819.31;2061813;69;20149;-82
2023/09/20 06:22:54;;;;;;;8.75;4.95;;;;;;;14.26;76.11;92808.34;2061775;69;20133;-82
2023/09/20 06:25:26;;;;;;;3.53;1.60;;;;;;;14.39;75.12;92804.72;2058237;69;20144;-82
2023/09/20 06:27:53;;;;;;;3.05;1.60;;;;;;;14.49;74.03;92802.41;2062045;69;20169;-82
2023/09/20 06:30:22;;;;;;;5.00;2.60;;;;;;;14.39;75.19;92810.41;2055394;69;20201;-80
2023/09/20 06:32:49;;;;;;;4.00;1.63;;;;;;;14.40;76.20;92806.19;2061854;69;20165;-80
2023/09/20 06:35:15;;;;;;;3.60;1.50;;;;;;;14.51;74.73;92804.59;2061852;69;20134;-80
2023/09/20 06:37:45;;;;;;;4.82;1.52;;;;;;;14.57;74.57;92809.81;2061919;69;20564;-81
2023/09/20 06:40:36;;;;;;;;;;;;;;;;;;;;;
2023/09/20 06:43:02;;;;;;;2.95;1.35;;;;;;;14.37;74.27;92801.78;2059520;69;20146;-80
2023/09/20 06:45:29;;;;;;;4.00;1.52;;;;;;;14.51;74.76;92796.09;2058290;69;20165;-80
2023/09/20 06:47:57;;;;;;;5.45;1.48;;;;;;;14.52;74.08;92779.84;2055444;69;20122;-80
2023/09/20 06:50:23;;;;;;;2.17;1.30;;;;;;;14.59;74.58;92782.31;2059461;69;20695;-80
2023/09/20 06:52:51;;;;;;;5.00;1.52;;;;;;;14.65;73.73;92791.09;2058550;69;20149;-79
2023/09/20 06:55:19;;;;;;;2.90;1.55;;;;;;;14.70;73.28;92780.69;2058295;69;20576;-79
2023/09/20 06:57:47;;;;;;;2.25;1.27;;;;;;;14.66;74.11;92777.66;2052151;69;20141;-81
2023/09/20 07:00:50;;;;;;;3.35;1.55;;;;;;;14.71;73.50;92773.69;2058595;69;20141;-78
2023/09/20 07:03:10;;;;;;;3.40;1.20;;;;;;;14.67;74.06;92771.38;2057829;69;20180;-80
2023/09/20 07:05:40;;;;;;;1.35;1.15;;;;;;;14.72;73.09;92760.97;2054749;69;20141;-78
2023/09/20 07:08:12;;;;;;;4.97;1.45;;;;;;;14.61;74.58;92764.69;2058512;69;20244;-79
2023/09/20 07:10:41;;;;;;;2.47;1.30;;;;;;;14.56;73.46;92754.53;2058341;69;20161;-79
2023/09/20 07:13:09;;;;;;;4.50;1.70;;;;;;;14.57;73.37;92756.00;2058394;69;20169;-81
2023/09/20 07:15:36;;;;;;;4.70;1.60;;;;;;;14.67;73.85;92753.66;2058441;69;20260;-80
2023/09/20 07:18:11;;;;;;;3.28;1.52;;;;;;;14.79;74.18;92748.53;2054798;69;20540;-80
2023/09/20 07:20:39;;;;;;;2.45;1.58;;;;;;;15.15;73.04;92745.88;2058703;69;20161;-81
2023/09/20 07:23:12;;;;;;;2.67;1.33;;;;;;;15.53;73.91;92746.84;2054995;69;20540;-81
2023/09/20 07:25:39;;;;;;;2.88;1.50;;;;;;;15.77;73.38;92749.31;2058310;69;20185;-82
2023/09/20 07:28:06;;;;;;;1.77;1.38;;;;;;;16.15;72.27;92758.69;2058550;69;20153;-81
2023/09/20 07:30:39;;;;;;;3.90;1.60;;;;;;;16.15;70.26;92745.22;2058489;69;20227;-80
2023/09/20 07:33:11;;;;;;;2.55;1.20;;;;;;;16.54;68.59;92738.25;2058497;69;20156;-81
2023/09/20 07:35:53;;;;;;;;;;;;;;;17.15;68.55;92740.59;2058789;69;20191;-81
2023/09/20 07:38:25;;;;;;;3.15;1.20;;;;;;;17.41;67.38;92737.25;2054128;69;20084;-80
2023/09/20 07:40:53;;;;;;;3.13;1.30;;;;;;;17.60;66.76;92730.84;2058235;69;20161;-80
2023/09/20 07:43:28;;;;;;;2.08;1.45;;;;;;;18.16;66.26;92737.03;2058374;69;20196;-81
2023/09/20 07:45:54;;;;;;;6.13;1.50;;;;;;;18.69;63.05;92735.94;2054686;69;20142;-81
2023/09/20 07:48:22;;;;;;;4.07;1.60;;;;;;;18.78;62.60;92737.63;2058431;69;20237;-82
2023/09/20 07:50:49;;;;;;;2.67;1.80;;;;;;;18.79;62.70;92744.06;2058502;69;20236;-82
2023/09/20 07:53:16;;;;;;;1.90;1.48;;;;;;;18.92;61.16;92742.28;2058459;69;20152;-82
2023/09/20 07:55:44;;;;;;;5.03;1.80;;;;;;;18.85;61.12;92744.25;2054734;69;20137;-82
2023/09/20 07:58:14;;;;;;;5.22;1.55;;;;;;;19.88;61.79;92747.94;2058422;69;20212;-82
2023/09/20 08:00:45;;;;;;;2.70;1.30;;;;;;;19.25;59.43;92744.03;2058424;69;20219;-82
2023/09/20 08:03:11;;;;;;;4.97;1.90;;;;;;;19.28;61.81;92754.81;2058425;69;20224;-83
2023/09/20 08:05:39;;;;;;;2.15;1.42;;;;;;;19.48;60.03;92748.25;2058611;69;20169;-83
2023/09/20 08:08:06;;;;;;;3.55;1.58;;;;;;;19.67;61.00;92744.53;2058784;69;20140;-82
2023/09/20 08:10:38;;;;;;;5.10;1.70;;;;;;;20.21;59.86;92749.53;2058517;69;20613;-82
2023/09/20 08:13:06;;;;;;;2.95;1.80;;;;;;;20.12;59.45;92745.75;2054935;69;20153;-81
2023/09/20 08:15:38;;;;;;;6.95;1.80;;;;;;;20.96;59.46;92739.94;2058739;69;20134;-82
2023/09/20 08:20:48;;;;;;;6.07;1.40;;;;;;;20.98;57.66;92740.00;2058799;69;20161;-80
2023/09/20 09:01:46;;;;;;;1.25;1.00;;;;;;;25.10;46.28;92714.63;2055181;69;20149;-82
2023/09/20 09:04:18;;;;;;;3.65;1.00;;;;;;;24.79;45.67;92712.94;2054562;69;20611;-83
2023/09/20 09:06:45;;;;;;;3.00;1.00;;;;;;;25.49;45.02;92712.00;2058203;69;20165;-83
2023/09/20 09:09:14;;;;;;;2.55;1.13;;;;;;;25.18;45.21;92710.34;2057044;69;20630;-85
2023/09/20 09:11:40;;;;;;;1.90;1.00;;;;;;;25.19;44.72;92700.28;2057106;69;20176;-82
2023/09/20 09:14:06;;;;;;;1.30;1.00;;;;;;;25.68;44.29;92703.44;2057781;69;20521;-82
2023/09/20 09:16:33;;;;;;;2.35;1.15;;;;;;;25.76;45.77;92700.63;2058350;69;20240;-82
2023/09/20 09:18:59;;;;;;;2.72;1.08;;;;;;;25.54;45.06;92699.03;2058247;69;20584;-83
2023/09/20 09:21:28;;;;;;;2.13;1.00;;;;;;;26.65;43.58;92700.13;2058128;69;20575;-83
2023/09/20 09:23:53;;;;;;;1.55;0.90;;;;;;;26.09;45.39;92692.78;2058284;69;20589;-83
2023/09/20 09:26:19;;;;;;;1.00;0.90;;;;;;;26.33;43.41;92692.84;2058381;69;20241;-83
2023/09/20 09:28:45;;;;;;;1.00;0.88;;;;;;;26.99;43.92;92682.06;2058403;69;20165;-83
2023/09/20 09:31:12;;;;;;;2.50;1.23;;;;;;;27.01;41.65;92679.16;2058207;69;20168;-83
2023/09/20 09:33:38;;;;;;;5.30;2.15;;;;;;;27.24;43.42;92674.09;2058574;69;20157;-83
2023/09/20 09:36:05;;;;;;;2.28;1.27;;;;;;;28.12;41.86;92668.03;2058422;69;20164;-83
2023/09/20 09:38:33;;;;;;;1.80;0.95;;;;;;;26.61;44.60;92665.47;2058412;69;20528;-83
2023/09/20 09:40:59;;;;;;;2.58;1.10;;;;;;;26.82;41.75;92664.03;2058081;69;20648;-83
2023/09/20 09:43:29;;;;;;;1.77;0.85;;;;;;;27.08;41.39;92651.75;2058380;69;20249;-83
2023/09/20 09:46:03;;;;;;;1.85;1.23;;;;;;;28.38;40.20;92657.78;2057952;69;20530;-83
2023/09/20 09:48:32;;;;;;;2.58;1.00;;;;;;;28.52;38.44;92655.50;2058325;69;20145;-83
2023/09/20 09:51:01;;;;;;;4.53;1.63;;;;;;;28.95;38.20;92643.59;2058026;69;20146;-83
2023/09/20 09:53:29;;;;;;;4.43;1.52;;;;;;;28.73;38.79;92638.69;2058702;69;20153;-84
2023/09/20 09:55:56;;;;;;;12.18;4.30;;;;;;;29.90;38.54;92643.34;2058568;69;20149;-83
2023/09/20 09:58:22;;;;;;;4.00;1.67;;;;;;;29.33;38.30;92636.72;2058798;69;20153;-83
2023/09/20 10:00:51;;;;;;;5.57;1.80;;;;;;;30.15;37.88;92637.94;2058764;69;20177;-84
2023/09/20 10:03:19;;;;;;;42.90;14.85;;;;;;;30.88;37.74;92631.78;2058650;69;20162;-83
2023/09/20 10:05:46;;;;;;;2.55;1.13;;;;;;;28.58;37.26;92623.59;2058642;69;20228;-83
2023/09/20 10:08:17;;;;;;;1.45;0.95;;;;;;;30.11;37.73;92630.72;2057718;69;20161;-84
2023/09/20 10:10:42;;;;;;;2.65;1.10;;;;;;;30.34;35.93;92625.34;2054817;69;20200;-86
2023/09/20 10:13:14;;;;;;;1.27;1.00;;;;;;;32.32;35.03;92621.03;2058386;69;20161;-89
2023/09/20 10:15:43;;;;;;;1.60;1.00;;;;;;;32.34;35.15;92624.63;2052176;69;20188;-83
2023/09/20 10:18:08;;;;;;;2.63;1.10;;;;;;;30.36;35.51;92613.69;2054772;69;20244;-83
2023/09/20 10:21:10;;;;;;;1.30;0.80;;;;;;;32.98;33.55;92608.59;2054894;69;20134;-83
2023/09/20 10:23:42;;;;;;;1.83;1.00;;;;;;;32.34;33.23;92612.25;2058386;69;20145;-83
2023/09/20 10:26:15;;;;;;;6.57;2.40;;;;;;;33.77;32.43;92615.28;2052032;69;20276;-81
2023/09/20 10:28:44;;;;;;;16.70;6.45;;;;;;;33.51;34.17;92622.56;2058575;69;20239;-82
2023/09/20 10:31:17;;;;;;;16.75;5.82;;;;;;;34.99;31.68;92622.63;2058361;69;20493;-81
2023/09/20 10:33:51;;;;;;;6.80;2.50;;;;;;;34.79;31.33;92615.19;2058209;69;20162;-81
2023/09/20 10:36:21;;;;;;;8.23;2.70;;;;;;;35.13;30.52;92618.50;2058490;69;20141;-81
2023/09/20 10:38:48;;;;;;;2.88;1.10;;;;;;;34.74;30.85;92610.97;2058706;69;20138;-82
2023/09/20 10:41:15;;;;;;;1.95;0.98;;;;;;;35.89;29.24;92611.47;2058321;69;20162;-83
2023/09/20 10:43:42;;;;;;;10.00;1.35;;;;;;;36.26;29.02;92603.56;2054788;69;20138;-80
2023/09/20 10:46:14;;;;;;;3.70;1.10;;;;;;;37.37;26.86;92610.16;2058419;69;20229;-81
2023/09/20 10:48:43;;;;;;;1.30;0.90;;;;;;;34.60;28.65;92596.81;2058549;69;20138;-82
2023/09/20 10:51:09;;;;;;;1.00;0.80;;;;;;;37.83;26.34;92603.78;2054726;69;20256;-84
2023/09/20 10:53:44;;;;;;;0.90;0.85;;;;;;;37.50;26.82;92598.63;2058438;69;20240;-83
2023/09/20 10:56:30;;;;;;;2.88;0.90;;;;;;;38.99;26.36;92600.69;2058326;69;20181;-83
2023/09/20 10:58:59;;;;;;;2.05;0.95;;;;;;;36.46;27.43;92587.44;2058638;69;20513;-85
2023/09/20 11:01:25;;;;;;;1.00;0.80;;;;;;;39.10;24.91;92601.63;2058423;69;20154;-84
2023/09/20 11:03:52;;;;;;;2.05;0.90;;;;;;;36.61;27.44;92594.91;2058311;69;20147;-86
2023/09/20 11:06:18;;;;;;;2.85;0.90;;;;;;;35.90;28.33;92586.53;2054800;69;20172;-82
2023/09/20 11:08:43;;;;;;;2.90;0.90;;;;;;;35.76;28.61;92586.38;2058290;69;20154;-81
2023/09/20 11:11:15;;;;;;;5.70;1.00;;;;;;;40.27;25.05;92589.81;2054415;69;20264;-84
2023/09/20 11:13:47;;;;;;;;;;;;;;;39.50;23.20;92579.84;2053737;69;20645;-82
2023/09/20 11:16:13;;;;;;;4.03;0.93;;;;;;;41.58;22.79;92581.00;2055123;70;20046;-81
2023/09/20 11:18:41;;;;;;;3.00;0.80;;;;;;;42.63;22.85;92576.09;2055117;69;20149;-82
2023/09/20 11:21:08;;;;;;;2.28;0.82;;;;;;;39.85;24.10;92564.75;2055181;69;20170;-81
2023/09/20 11:23:37;;;;;;;1.75;0.82;;;;;;;36.32;27.68;92548.38;2054552;70;20235;-80
2023/09/20 11:26:04;;;;;;;1.77;0.70;;;;;;;36.05;27.16;92554.53;2055157;69;20134;-80
2023/09/20 11:28:32;;;;;;;2.53;0.70;;;;;;;35.60;28.09;92550.34;2055079;69;20177;-82
2023/09/20 11:30:59;;;;;;;1.10;0.85;;;;;;;34.63;28.81;92533.88;2055155;69;20176;-82
2023/09/20 11:33:28;;;;;;;1.30;0.77;;;;;;;35.42;27.09;92529.75;2058626;69;20149;-81
2023/09/20 11:35:54;;;;;;;2.33;0.90;;;;;;;39.58;25.73;92552.91;2062289;69;20233;-81
2023/09/20 11:38:21;;;;;;;6.32;1.00;;;;;;;41.52;23.14;92551.13;2063096;70;20110;-80
2023/09/20 11:40:47;;;;;;;1.80;1.00;;;;;;;43.24;21.64;92550.03;2061571;69;20142;-81
2023/09/20 11:43:20;;;;;;;2.45;0.90;;;;;;;44.55;21.88;92544.78;2060530;69;20125;-81
2023/09/20 11:45:49;;;;;;;1.48;0.80;;;;;;;43.48;20.05;92541.78;2062659;69;20138;-84
2023/09/20 11:48:15;;;;;;;1.08;0.80;;;;;;;41.66;22.00;92522.97;2060033;69;20173;-84
2023/09/20 11:50:47;;;;;;;1.55;0.70;;;;;;;42.07;22.12;92515.28;2056420;69;20221;-83
2023/09/20 11:53:15;;;;;;;;;;;;;;;41.81;21.30;92521.28;2056838;69;20181;-82
2023/09/20 11:55:42;;;;;;;4.30;0.98;;;;;;;44.90;20.36;92531.09;2055692;70;20067;-83
2023/09/20 11:58:14;;;;;;;2.15;0.90;;;;;;;46.25;20.04;92530.63;2055858;69;20162;-82
2023/09/20 12:00:43;;;;;;;1.45;0.80;;;;;;;40.38;22.84;92508.16;2057258;69;20146;-86
2023/09/20 12:03:09;;;;;;;2.90;0.82;;;;;;;38.97;24.19;92500.06;2055398;69;20142;-84
2023/09/20 12:05:35;;;;;;;2.33;1.10;;;;;;;37.01;26.28;92492.09;2055118;69;20148;-83
2023/09/20 12:08:02;;;;;;;1.95;0.75;;;;;;;40.29;24.29;92493.16;2054550;69;20141;-83
2023/09/20 12:10:30;;;;;;;2.67;1.00;;;;;;;42.64;22.58;92485.78;2054899;69;20189;-81
2023/09/20 12:12:56;;;;;;;1.30;0.70;;;;;;;41.47;23.20;92487.91;2054992;69;20138;-80
2023/09/20 12:15:23;;;;;;;3.78;1.10;;;;;;;38.23;26.36;92483.00;2055115;70;20226;-83
2023/09/20 12:17:56;;;;;;;2.35;0.88;;;;;;;36.31;28.90;92476.63;2055047;69;20146;-79
2023/09/20 12:20:24;;;;;;;1.15;0.80;;;;;;;36.97;27.61;92474.69;2055088;69;20142;-79